Time;durP1;ratioP1;P1;durP2;ratioP2;P2;SDS_P1;SDS_P2;PMS_P1;PMS_P2;Temp;Humidity;BMP_temperature;BMP_pressure;BME280_temperature;BME280_humidity;BME280_pressure;Samples;Min_cycle;Max_cycle;Signal;HPM_P1;HPM_P2
2023/05/04 00:02:18;;;;;;;13.07;7.17;;;;;;;;;;757470;183;917435;-75
2023/05/04 00:04:44;;;;;;;10.57;6.27;;;;;;;;;;761884;181;928899;-74
2023/05/04 00:07:10;;;;;;;7.30;5.57;;;;;;;;;;760553;181;917609;-74
2023/05/04 00:09:36;;;;;;;9.93;6.10;;;;;;;;;;762657;181;919464;-74
2023/05/04 00:12:02;;;;;;;7.30;5.67;;;;;;;;;;759839;181;917075;-74
2023/05/04 00:14:27;;;;;;;8.87;5.67;;;;;;;;;;765965;181;911339;-74
2023/05/04 00:16:53;;;;;;;7.77;5.20;;;;;;;;;;771033;182;854221;-75
2023/05/04 00:19:19;;;;;;;7.67;6.20;;;;;;;;;;756766;182;916937;-74
2023/05/04 00:21:45;;;;;;;9.43;5.00;;;;;;;;;;754459;182;1015254;-73
2023/05/04 00:24:11;;;;;;;7.03;4.93;;;;;;;;;;769769;180;919609;-73
2023/05/04 00:26:37;;;;;;;7.80;5.70;;;;;;;;;;766098;180;918317;-74
2023/05/04 00:29:02;;;;;;;7.40;5.70;;;;;;;;;;763709;180;877127;-75
2023/05/04 00:31:28;;;;;;;9.75;5.93;;;;;;;;;;766437;180;913368;-73
2023/05/04 00:33:54;;;;;;;8.87;6.70;;;;;;;;;;754775;181;913678;-74
2023/05/04 00:36:20;;;;;;;10.60;6.53;;;;;;;;;;760543;182;1009098;-75
2023/05/04 00:38:47;;;;;;;15.50;6.57;;;;;;;;;;761476;183;922259;-74
2023/05/04 00:41:12;;;;;;;12.35;7.35;;;;;;;;;;765837;180;918861;-74
2023/05/04 00:43:38;;;;;;;11.47;7.30;;;;;;;;;;760384;181;924235;-74
2023/05/04 00:46:03;;;;;;;11.97;6.53;;;;;;;;;;754662;181;919128;-74
2023/05/04 00:48:29;;;;;;;23.85;10.65;;;;;;;;;;764898;181;919107;-74
2023/05/04 00:50:55;;;;;;;13.23;7.83;;;;;;;;;;760888;180;918020;-75
2023/05/04 00:53:21;;;;;;;13.70;8.37;;;;;;;;;;761796;180;914255;-75
2023/05/04 00:55:47;;;;;;;11.73;8.03;;;;;;;;;;771715;180;848987;-75
2023/05/04 00:58:13;;;;;;;12.57;7.67;;;;;;;;;;757788;181;885439;-74
2023/05/04 01:00:38;;;;;;;12.17;6.97;;;;;;;;;;758655;181;921459;-74
2023/05/04 01:03:04;;;;;;;11.20;6.87;;;;;;;;;;762582;180;921343;-74
2023/05/04 01:05:30;;;;;;;15.23;7.77;;;;;;;;;;760114;181;910506;-74
2023/05/04 01:07:58;;;;;;;11.83;7.83;;;;;;;;;;727857;190;1130863;-75
2023/05/04 01:10:24;;;;;;;13.53;6.97;;;;;;;;;;751830;186;915668;-74
2023/05/04 01:12:51;;;;;;;15.57;8.13;;;;;;;;;;753286;187;928669;-75
2023/05/04 01:15:16;;;;;;;13.33;8.17;;;;;;;;;;760009;181;918312;-76
2023/05/04 01:17:42;;;;;;;13.53;7.73;;;;;;;;;;766430;180;817722;-74
2023/05/04 01:20:08;;;;;;;14.53;7.90;;;;;;;;;;769968;181;813535;-75
2023/05/04 01:22:34;;;;;;;15.53;8.67;;;;;;;;;;755766;181;891385;-74
2023/05/04 01:25:00;;;;;;;13.67;8.47;;;;;;;;;;760063;181;913688;-74
2023/05/04 01:27:26;;;;;;;14.52;8.10;;;;;;;;;;758322;180;920704;-74
2023/05/04 01:30:01;;;;;;;15.07;7.77;;;;;;;;;;768553;180;931301;-74
2023/05/04 01:32:27;;;;;;;17.27;9.20;;;;;;;;;;749956;186;942802;-75
2023/05/04 01:34:53;;;;;;;13.43;7.93;;;;;;;;;;755116;182;915463;-76
2023/05/04 01:37:18;;;;;;;16.07;8.43;;;;;;;;;;755958;180;1020602;-74
2023/05/04 01:39:45;;;;;;;13.13;9.17;;;;;;;;;;766706;181;930015;-75
2023/05/04 01:42:10;;;;;;;17.20;9.55;;;;;;;;;;761661;180;932069;-75
2023/05/04 01:44:36;;;;;;;15.07;9.10;;;;;;;;;;764407;180;918981;-74
2023/05/04 01:47:02;;;;;;;13.23;7.60;;;;;;;;;;763134;181;1024185;-75
2023/05/04 01:49:28;;;;;;;14.90;7.90;;;;;;;;;;766513;180;823105;-75
2023/05/04 01:51:54;;;;;;;17.83;9.13;;;;;;;;;;758228;181;919176;-74
2023/05/04 01:54:19;;;;;;;14.93;9.23;;;;;;;;;;764882;181;921589;-74
2023/05/04 01:56:45;;;;;;;14.93;8.70;;;;;;;;;;749535;181;919454;-75
2023/05/04 01:59:11;;;;;;;14.60;9.23;;;;;;;;;;736416;189;1018549;-76
2023/05/04 02:01:37;;;;;;;17.67;9.80;;;;;;;;;;764329;181;934923;-74
2023/05/04 02:04:03;;;;;;;14.90;9.33;;;;;;;;;;774748;177;809480;-75
2023/05/04 02:06:29;;;;;;;18.30;9.20;;;;;;;;;;744553;183;918617;-75
2023/05/04 02:08:55;;;;;;;14.93;9.27;;;;;;;;;;756900;182;817338;-74
2023/05/04 02:11:21;;;;;;;14.83;9.53;;;;;;;;;;769146;183;815537;-75
2023/05/04 02:13:47;;;;;;;13.27;10.00;;;;;;;;;;759670;180;815557;-75
2023/05/04 02:16:12;;;;;;;15.02;9.77;;;;;;;;;;762163;180;917891;-74
2023/05/04 02:18:38;;;;;;;12.13;9.30;;;;;;;;;;762915;183;941703;-75
2023/05/04 02:21:04;;;;;;;17.77;8.83;;;;;;;;;;761789;181;917923;-75
2023/05/04 02:23:30;;;;;;;15.45;9.02;;;;;;;;;;752104;181;1019708;-75
2023/05/04 02:25:56;;;;;;;12.87;8.97;;;;;;;;;;766854;180;915232;-75
2023/05/04 02:28:22;;;;;;;17.60;9.90;;;;;;;;;;753555;183;926398;-76
2023/05/04 02:30:48;;;;;;;13.17;9.47;;;;;;;;;;760201;183;933469;-74
2023/05/04 02:33:14;;;;;;;12.33;9.17;;;;;;;;;;765938;183;915283;-74
2023/05/04 02:35:40;;;;;;;16.20;10.33;;;;;;;;;;762477;183;752291;-75
2023/05/04 02:38:05;;;;;;;17.07;9.53;;;;;;;;;;755203;182;915565;-75
2023/05/04 02:40:32;;;;;;;19.70;10.80;;;;;;;;;;754081;180;813574;-74
2023/05/04 02:42:57;;;;;;;15.00;9.93;;;;;;;;;;763397;182;824358;-75
2023/05/04 02:45:23;;;;;;;17.80;10.27;;;;;;;;;;758671;182;922441;-75
2023/05/04 02:47:49;;;;;;;15.70;9.80;;;;;;;;;;764006;183;1011860;-74
2023/05/04 02:50:15;;;;;;;16.50;9.70;;;;;;;;;;763946;182;815614;-74
2023/05/04 02:52:40;;;;;;;16.70;11.53;;;;;;;;;;732664;189;1015576;-75
2023/05/04 02:55:06;;;;;;;14.60;10.07;;;;;;;;;;734653;190;918495;-75
2023/05/04 02:57:32;;;;;;;18.67;11.67;;;;;;;;;;764394;181;919183;-74
2023/05/04 02:59:58;;;;;;;21.70;11.60;;;;;;;;;;775777;177;918167;-74
2023/05/04 03:02:24;;;;;;;16.87;11.73;;;;;;;;;;757822;181;920526;-74
2023/05/04 03:04:50;;;;;;;23.13;12.90;;;;;;;;;;760544;181;919902;-74
2023/05/04 03:07:16;;;;;;;22.57;12.90;;;;;;;;;;766319;183;804305;-76
2023/05/04 03:09:41;;;;;;;26.53;13.93;;;;;;;;;;765040;181;818230;-75
2023/05/04 03:12:07;;;;;;;26.50;12.80;;;;;;;;;;765682;181;926413;-75
2023/05/04 03:14:33;;;;;;;26.10;16.47;;;;;;;;;;759676;183;815554;-75
2023/05/04 03:16:59;;;;;;;20.50;13.77;;;;;;;;;;762940;181;809947;-75
2023/05/04 03:19:25;;;;;;;19.93;14.33;;;;;;;;;;756426;181;919924;-75
2023/05/04 03:21:52;;;;;;;22.13;12.80;;;;;;;;;;756011;183;912798;-74
2023/05/04 03:24:18;;;;;;;23.13;15.23;;;;;;;;;;748146;187;909856;-76
2023/05/04 03:26:43;;;;;;;19.43;13.70;;;;;;;;;;764169;183;807532;-75
2023/05/04 03:29:09;;;;;;;23.85;13.85;;;;;;;;;;761248;183;1031423;-75
2023/05/04 03:31:35;;;;;;;24.00;15.13;;;;;;;;;;767518;180;904716;-75
2023/05/04 03:34:02;;;;;;;25.70;15.57;;;;;;;;;;762497;180;939417;-75
2023/05/04 03:36:27;;;;;;;24.30;14.37;;;;;;;;;;763725;181;907144;-75
2023/05/04 03:38:53;;;;;;;23.20;15.00;;;;;;;;;;760589;183;917245;-75
2023/05/04 03:41:19;;;;;;;21.03;14.53;;;;;;;;;;763367;180;919152;-75
2023/05/04 03:43:45;;;;;;;25.40;15.53;;;;;;;;;;751373;183;1021449;-75
2023/05/04 03:46:11;;;;;;;20.30;13.53;;;;;;;;;;759720;182;921619;-75
2023/05/04 03:48:37;;;;;;;26.90;16.17;;;;;;;;;;759522;181;920407;-75
2023/05/04 03:51:03;;;;;;;20.03;13.67;;;;;;;;;;767237;180;918575;-76
2023/05/04 03:53:28;;;;;;;29.08;15.75;;;;;;;;;;764085;180;887365;-75
2023/05/04 03:55:54;;;;;;;28.53;16.40;;;;;;;;;;768997;180;917243;-75
2023/05/04 03:58:20;;;;;;;24.30;16.57;;;;;;;;;;761956;181;917610;-75
2023/05/04 04:00:46;;;;;;;29.07;16.03;;;;;;;;;;761891;180;927875;-75
2023/05/04 04:03:12;;;;;;;28.30;16.10;;;;;;;;;;772001;180;871800;-75
2023/05/04 04:05:38;;;;;;;24.47;15.73;;;;;;;;;;768352;180;815117;-75
2023/05/04 04:08:04;;;;;;;25.17;17.12;;;;;;;;;;764515;180;816261;-77
2023/05/04 04:10:30;;;;;;;28.30;17.10;;;;;;;;;;769645;180;814772;-75
2023/05/04 04:12:55;;;;;;;29.97;17.40;;;;;;;;;;763365;181;814285;-75
2023/05/04 04:15:21;;;;;;;32.53;18.40;;;;;;;;;;759700;181;643979;-75
2023/05/04 04:17:47;;;;;;;31.75;20.67;;;;;;;;;;759402;181;917158;-75
2023/05/04 04:20:13;;;;;;;31.87;20.13;;;;;;;;;;767432;181;762636;-75
2023/05/04 04:22:39;;;;;;;34.00;19.57;;;;;;;;;;756094;181;885648;-74
2023/05/04 04:25:05;;;;;;;33.97;21.00;;;;;;;;;;763255;180;1023449;-75
2023/05/04 04:27:31;;;;;;;39.67;22.90;;;;;;;;;;765525;181;922041;-75
2023/05/04 04:29:57;;;;;;;40.00;24.30;;;;;;;;;;765387;180;919864;-75
2023/05/04 04:32:23;;;;;;;37.83;23.07;;;;;;;;;;763394;180;918635;-75
2023/05/04 04:34:48;;;;;;;39.13;24.03;;;;;;;;;;764720;181;923214;-76
2023/05/04 04:37:14;;;;;;;31.03;21.17;;;;;;;;;;757156;180;921245;-76
2023/05/04 04:39:41;;;;;;;35.88;22.20;;;;;;;;;;762056;181;913717;-75
2023/05/04 04:42:06;;;;;;;22.43;14.37;;;;;;;;;;764142;182;719368;-75
2023/05/04 04:44:32;;;;;;;37.80;20.70;;;;;;;;;;768008;183;919471;-76
2023/05/04 04:46:58;;;;;;;29.30;19.37;;;;;;;;;;762959;183;917756;-76
2023/05/04 04:49:24;;;;;;;34.93;19.13;;;;;;;;;;767074;181;919034;-74
2023/05/04 04:51:50;;;;;;;36.93;21.20;;;;;;;;;;763653;183;724290;-76
2023/05/04 04:54:16;;;;;;;21.43;13.77;;;;;;;;;;756988;181;928529;-77
2023/05/04 04:56:43;;;;;;;30.23;17.67;;;;;;;;;;763384;181;864527;-75
2023/05/04 04:59:09;;;;;;;30.03;15.10;;;;;;;;;;766976;180;955962;-75
2023/05/04 05:01:34;;;;;;;30.93;17.07;;;;;;;;;;762213;180;917665;-76
2023/05/04 05:03:59;;;;;;;15.83;12.40;;;;;;;;;;763597;180;810291;-76
2023/05/04 05:06:25;;;;;;;27.47;12.10;;;;;;;;;;764978;180;918789;-75
2023/05/04 05:08:52;;;;;;;23.00;13.97;;;;;;;;;;766800;180;1021873;-77
2023/05/04 05:11:17;;;;;;;20.00;13.57;;;;;;;;;;751091;183;989049;-76
2023/05/04 05:13:43;;;;;;;23.50;13.10;;;;;;;;;;756935;181;916744;-76
2023/05/04 05:16:09;;;;;;;29.13;16.40;;;;;;;;;;761192;181;812854;-76
2023/05/04 05:18:35;;;;;;;25.07;14.73;;;;;;;;;;759691;181;920872;-77
2023/05/04 05:21:00;;;;;;;29.80;16.40;;;;;;;;;;759016;181;1501869;-77
2023/05/04 05:23:26;;;;;;;26.00;16.30;;;;;;;;;;762219;181;918435;-76
2023/05/04 05:25:52;;;;;;;29.53;17.87;;;;;;;;;;761417;181;918644;-76
2023/05/04 05:28:18;;;;;;;30.60;18.50;;;;;;;;;;762165;180;958953;-75
2023/05/04 05:30:44;;;;;;;27.77;15.70;;;;;;;;;;765067;180;815515;-75
2023/05/04 05:33:10;;;;;;;30.77;14.40;;;;;;;;;;740129;187;914447;-76
2023/05/04 05:35:35;;;;;;;32.33;17.00;;;;;;;;;;758048;181;922660;-76
2023/05/04 05:38:01;;;;;;;29.70;15.13;;;;;;;;;;765246;180;925037;-75
2023/05/04 05:40:27;;;;;;;36.10;19.43;;;;;;;;;;764278;181;814721;-76
2023/05/04 05:42:53;;;;;;;33.03;19.27;;;;;;;;;;751104;183;920971;-75
2023/05/04 05:45:19;;;;;;;30.20;15.70;;;;;;;;;;763246;182;816358;-76
2023/05/04 05:47:45;;;;;;;36.50;18.73;;;;;;;;;;762210;181;815248;-76
2023/05/04 05:50:11;;;;;;;33.27;16.90;;;;;;;;;;766677;180;918060;-75
2023/05/04 05:52:37;;;;;;;41.13;18.70;;;;;;;;;;761335;181;919307;-75
2023/05/04 05:55:03;;;;;;;34.40;19.27;;;;;;;;;;767912;180;1115013;-76
2023/05/04 05:57:29;;;;;;;25.67;14.83;;;;;;;;;;759108;181;898606;-76
2023/05/04 05:59:55;;;;;;;37.63;20.30;;;;;;;;;;766605;180;917969;-76
2023/05/04 06:02:20;;;;;;;23.80;13.73;;;;;;;;;;763429;181;817125;-74
2023/05/04 06:04:46;;;;;;;30.20;16.67;;;;;;;;;;755254;184;919032;-76
2023/05/04 06:07:13;;;;;;;26.97;16.13;;;;;;;;;;753828;183;919648;-76
2023/05/04 06:09:39;;;;;;;34.07;17.00;;;;;;;;;;750699;183;993214;-76
2023/05/04 06:12:06;;;;;;;31.70;16.60;;;;;;;;;;769110;180;919299;-76
2023/05/04 06:14:30;;;;;;;32.23;17.87;;;;;;;;;;758061;180;920624;-76
2023/05/04 06:16:56;;;;;;;32.92;20.35;;;;;;;;;;763680;180;911815;-76
2023/05/04 06:19:22;;;;;;;30.50;16.47;;;;;;;;;;742753;189;918960;-76
2023/05/04 06:21:48;;;;;;;41.70;21.77;;;;;;;;;;735954;189;915167;-76
2023/05/04 06:24:14;;;;;;;36.97;20.73;;;;;;;;;;747277;186;965266;-75
2023/05/04 06:26:40;;;;;;;32.50;17.60;;;;;;;;;;758754;183;918988;-76
2023/05/04 06:29:05;;;;;;;28.73;14.97;;;;;;;;;;762062;182;1935765;-77
2023/05/04 06:31:31;;;;;;;21.90;12.60;;;;;;;;;;759937;183;918819;-76
2023/05/04 06:33:57;;;;;;;32.37;17.70;;;;;;;;;;760627;182;918050;-76
2023/05/04 06:36:25;;;;;;;39.20;16.50;;;;;;;;;;764481;180;1023164;-76
2023/05/04 06:38:49;;;;;;;38.17;21.80;;;;;;;;;;765124;180;946426;-76
2023/05/04 06:41:15;;;;;;;27.07;16.90;;;;;;;;;;761037;180;908006;-76
2023/05/04 06:43:41;;;;;;;30.73;17.63;;;;;;;;;;740961;189;808327;-76
2023/05/04 06:46:06;;;;;;;34.33;19.73;;;;;;;;;;757426;183;910795;-77
2023/05/04 06:48:32;;;;;;;33.27;18.53;;;;;;;;;;757806;181;819513;-77
2023/05/04 06:50:58;;;;;;;30.60;17.90;;;;;;;;;;770136;180;815234;-75
2023/05/04 06:53:24;;;;;;;36.50;17.47;;;;;;;;;;754921;181;909852;-77
2023/05/04 06:55:50;;;;;;;30.50;15.50;;;;;;;;;;763739;181;919659;-76
2023/05/04 06:58:16;;;;;;;32.93;20.50;;;;;;;;;;760109;181;1020282;-76
2023/05/04 07:00:41;;;;;;;27.90;15.90;;;;;;;;;;770001;181;918653;-77
2023/05/04 07:03:07;;;;;;;29.87;18.80;;;;;;;;;;764571;180;813629;-76
2023/05/04 07:05:34;;;;;;;32.37;19.80;;;;;;;;;;762834;181;917471;-77
2023/05/04 07:07:59;;;;;;;27.90;20.30;;;;;;;;;;769850;180;919111;-77
2023/05/04 07:10:25;;;;;;;30.80;19.20;;;;;;;;;;754648;180;938611;-76
2023/05/04 07:12:51;;;;;;;27.63;19.10;;;;;;;;;;760381;180;919234;-76
2023/05/04 07:15:17;;;;;;;31.70;19.13;;;;;;;;;;757426;181;915232;-76
2023/05/04 07:17:42;;;;;;;28.57;19.10;;;;;;;;;;757993;180;916833;-77
2023/05/04 07:20:09;;;;;;;24.00;16.63;;;;;;;;;;752962;181;931835;-77
2023/05/04 07:22:34;;;;;;;21.17;10.73;;;;;;;;;;766162;180;1021357;-76
2023/05/04 07:25:00;;;;;;;25.23;15.07;;;;;;;;;;770164;182;915952;-77
2023/05/04 07:27:26;;;;;;;31.33;19.37;;;;;;;;;;765009;180;920454;-77
2023/05/04 07:29:52;;;;;;;27.80;17.30;;;;;;;;;;766318;180;920007;-76
2023/05/04 07:32:18;;;;;;;29.13;18.00;;;;;;;;;;757182;184;821197;-77
2023/05/04 07:34:44;;;;;;;24.20;17.37;;;;;;;;;;758216;180;814463;-77
2023/05/04 07:37:09;;;;;;;25.43;16.53;;;;;;;;;;763583;181;916307;-76
2023/05/04 07:39:35;;;;;;;25.60;14.53;;;;;;;;;;765739;180;905127;-76
2023/05/04 07:42:01;;;;;;;20.50;14.23;;;;;;;;;;773758;180;829478;-76
2023/05/04 07:44:27;;;;;;;26.23;15.00;;;;;;;;;;768974;182;826181;-76
2023/05/04 07:46:53;;;;;;;22.10;15.53;;;;;;;;;;767229;183;816688;-76
2023/05/04 07:49:19;;;;;;;19.80;12.00;;;;;;;;;;767768;182;817238;-76
2023/05/04 07:51:45;;;;;;;20.43;13.10;;;;;;;;;;757592;182;919278;-76
2023/05/04 07:54:11;;;;;;;21.67;13.80;;;;;;;;;;758781;183;919546;-75
2023/05/04 07:56:36;;;;;;;16.77;11.20;;;;;;;;;;766340;181;919350;-76
2023/05/04 07:59:03;;;;;;;19.00;10.80;;;;;;;;;;764893;180;916182;-76
2023/05/04 08:01:29;;;;;;;20.50;12.50;;;;;;;;;;759770;181;944072;-75
2023/05/04 08:03:55;;;;;;;30.08;12.73;;;;;;;;;;769177;183;866314;-77
2023/05/04 08:06:20;;;;;;;24.53;12.80;;;;;;;;;;763420;183;919448;-77
2023/05/04 08:08:48;;;;;;;21.00;11.97;;;;;;;;;;757128;181;918741;-76
2023/05/04 08:11:13;;;;;;;13.80;8.50;;;;;;;;;;765002;183;941470;-75
2023/05/04 08:13:38;;;;;;;20.30;11.00;;;;;;;;;;763351;181;915144;-76
2023/05/04 08:16:04;;;;;;;22.20;10.90;;;;;;;;;;760580;182;918372;-75
2023/05/04 08:18:30;;;;;;;15.80;11.20;;;;;;;;;;762027;181;824661;-76
2023/05/04 08:20:57;;;;;;;13.87;9.73;;;;;;;;;;769900;181;916494;-76
2023/05/04 08:23:22;;;;;;;10.67;7.10;;;;;;;;;;761780;181;840005;-76
2023/05/04 08:25:48;;;;;;;14.10;8.85;;;;;;;;;;761421;181;813547;-76
2023/05/04 08:28:14;;;;;;;11.93;7.63;;;;;;;;;;768587;180;919208;-75
2023/05/04 08:30:39;;;;;;;8.80;6.13;;;;;;;;;;760498;180;921636;-76
2023/05/04 08:33:07;;;;;;;16.10;9.73;;;;;;;;;;763801;180;911226;-76
2023/05/04 08:35:31;;;;;;;13.80;7.80;;;;;;;;;;766867;181;918045;-75
2023/05/04 08:37:57;;;;;;;10.45;7.32;;;;;;;;;;741719;185;915960;-76
2023/05/04 08:40:23;;;;;;;11.13;5.70;;;;;;;;;;764355;182;758721;-75
2023/05/04 08:42:50;;;;;;;11.30;6.70;;;;;;;;;;766766;182;817445;-75
2023/05/04 08:45:15;;;;;;;9.85;6.25;;;;;;;;;;768069;182;815157;-75
2023/05/04 08:47:42;;;;;;;8.77;7.10;;;;;;;;;;762311;181;915096;-76
2023/05/04 08:50:06;;;;;;;8.47;5.93;;;;;;;;;;758433;180;920883;-76
2023/05/04 08:52:32;;;;;;;12.03;7.70;;;;;;;;;;767090;180;951309;-75
2023/05/04 08:54:58;;;;;;;18.20;6.53;;;;;;;;;;759816;182;940467;-75
2023/05/04 08:57:24;;;;;;;9.20;6.00;;;;;;;;;;764243;181;917202;-76
2023/05/04 08:59:51;;;;;;;11.47;6.10;;;;;;;;;;766934;181;1123075;-75
2023/05/04 09:02:16;;;;;;;9.67;4.77;;;;;;;;;;764574;180;962301;-75
2023/05/04 09:04:42;;;;;;;7.23;5.30;;;;;;;;;;761129;180;927318;-74
2023/05/04 09:07:08;;;;;;;7.90;3.97;;;;;;;;;;766058;181;919350;-75
2023/05/04 09:09:34;;;;;;;9.23;4.90;;;;;;;;;;767292;181;1021261;-75
2023/05/04 09:12:00;;;;;;;8.57;4.60;;;;;;;;;;762368;181;918451;-75
2023/05/04 09:14:26;;;;;;;7.70;4.03;;;;;;;;;;765286;183;917619;-75
2023/05/04 09:16:52;;;;;;;10.30;4.63;;;;;;;;;;769991;183;920829;-75
2023/05/04 09:19:17;;;;;;;11.17;4.40;;;;;;;;;;768956;183;986169;-75
2023/05/04 09:21:43;;;;;;;9.10;5.27;;;;;;;;;;765911;183;915796;-76
2023/05/04 09:24:11;;;;;;;6.07;4.80;;;;;;;;;;769489;183;932041;-74
2023/05/04 09:26:36;;;;;;;8.53;5.23;;;;;;;;;;762968;180;919195;-76
2023/05/04 09:29:18;;;;;;;6.47;4.47;;;;;;;;;;762477;181;919174;-76
2023/05/04 09:31:43;;;;;;;10.03;4.17;;;;;;;;;;756619;181;919695;-75
2023/05/04 09:34:09;;;;;;;13.00;5.87;;;;;;;;;;761139;180;1000199;-75
2023/05/04 09:36:36;;;;;;;5.95;4.40;;;;;;;;;;771065;181;911739;-76
2023/05/04 09:39:07;;;;;;;9.73;6.30;;;;;;;;;;763201;180;916450;-76
2023/05/04 09:41:33;;;;;;;10.43;6.70;;;;;;;;;;764204;182;816027;-76
2023/05/04 09:43:59;;;;;;;5.97;4.50;;;;;;;;;;762239;183;919096;-76
2023/05/04 09:46:24;;;;;;;10.63;7.10;;;;;;;;;;747107;186;817740;-76
2023/05/04 09:48:51;;;;;;;12.50;8.67;;;;;;;;;;766914;180;916478;-75
2023/05/04 09:51:18;;;;;;;13.40;5.07;;;;;;;;;;765222;182;915718;-75
2023/05/04 09:53:42;;;;;;;10.07;7.20;;;;;;;;;;776308;181;749266;-77
2023/05/04 09:56:10;;;;;;;11.60;7.60;;;;;;;;;;753112;180;921307;-77
2023/05/04 09:58:35;;;;;;;13.33;7.30;;;;;;;;;;754742;183;918609;-74
2023/05/04 10:01:01;;;;;;;9.10;6.90;;;;;;;;;;766013;183;818812;-77
2023/05/04 10:03:27;;;;;;;8.40;6.30;;;;;;;;;;764578;180;920435;-76
2023/05/04 10:05:53;;;;;;;10.50;6.23;;;;;;;;;;773165;179;1018068;-76
2023/05/04 10:08:19;;;;;;;9.40;6.90;;;;;;;;;;760232;182;1003677;-77
2023/05/04 10:10:45;;;;;;;12.30;8.63;;;;;;;;;;760024;181;926045;-78
2023/05/04 10:13:11;;;;;;;12.40;7.10;;;;;;;;;;764891;180;915132;-75
2023/05/04 10:15:38;;;;;;;12.80;9.07;;;;;;;;;;763877;180;899666;-76
2023/05/04 10:18:06;;;;;;;12.97;6.90;;;;;;;;;;768357;180;919301;-77
2023/05/04 10:20:52;;;;;;;12.83;7.63;;;;;;;;;;751295;183;922349;-77
2023/05/04 10:23:34;;;;;;;10.37;8.00;;;;;;;;;;756443;181;1019214;-77
2023/05/04 10:26:15;;;;;;;11.37;7.63;;;;;;;;;;760361;180;912146;-77
2023/05/04 10:28:47;;;;;;;16.10;6.60;;;;;;;;;;762076;180;920284;-77
2023/05/04 10:31:13;;;;;;;14.63;10.05;;;;;;;;;;755178;181;913391;-77
2023/05/04 10:33:39;;;;;;;8.43;6.70;;;;;;;;;;763201;181;818042;-76
2023/05/04 10:36:05;;;;;;;10.73;8.03;;;;;;;;;;769816;181;923266;-76
2023/05/04 10:38:32;;;;;;;10.10;7.30;;;;;;;;;;764015;180;914595;-77
2023/05/04 10:40:59;;;;;;;16.70;9.07;;;;;;;;;;765871;181;913852;-77
2023/05/04 10:43:24;;;;;;;11.87;7.70;;;;;;;;;;763480;181;914322;-77
2023/05/04 10:45:50;;;;;;;13.00;8.23;;;;;;;;;;764446;180;1016871;-76
2023/05/04 10:48:16;;;;;;;10.40;8.37;;;;;;;;;;764079;181;913634;-77
2023/05/04 10:50:44;;;;;;;15.27;9.87;;;;;;;;;;770724;180;915187;-76
2023/05/04 10:53:10;;;;;;;10.83;7.27;;;;;;;;;;758712;181;913051;-77
2023/05/04 10:55:37;;;;;;;10.97;8.33;;;;;;;;;;752305;183;915019;-77
2023/05/04 10:58:03;;;;;;;13.20;5.80;;;;;;;;;;730356;191;920187;-75
2023/05/04 11:00:38;;;;;;;11.87;8.10;;;;;;;;;;763931;181;916009;-76
2023/05/04 11:03:04;;;;;;;9.23;5.50;;;;;;;;;;757794;183;931481;-76
2023/05/04 11:05:29;;;;;;;16.53;7.73;;;;;;;;;;761420;182;921380;-77
2023/05/04 11:07:55;;;;;;;8.27;5.70;;;;;;;;;;764639;181;851280;-76
2023/05/04 11:10:22;;;;;;;10.63;6.67;;;;;;;;;;761591;183;919389;-75
2023/05/04 11:12:48;;;;;;;9.63;5.63;;;;;;;;;;741298;187;914420;-76
2023/05/04 11:15:14;;;;;;;10.40;5.60;;;;;;;;;;760697;182;981398;-77
2023/05/04 11:17:46;;;;;;;9.10;5.00;;;;;;;;;;770441;180;814678;-76
2023/05/04 11:20:18;;;;;;;11.80;5.63;;;;;;;;;;758151;182;914463;-77
2023/05/04 11:22:44;;;;;;;10.07;5.07;;;;;;;;;;725781;191;918902;-77
2023/05/04 11:25:10;;;;;;;8.83;5.33;;;;;;;;;;743236;187;921703;-78
2023/05/04 11:27:36;;;;;;;7.40;5.03;;;;;;;;;;741229;190;918005;-76
2023/05/04 11:30:02;;;;;;;12.77;4.47;;;;;;;;;;745902;186;921148;-77
2023/05/04 11:32:34;;;;;;;14.00;8.03;;;;;;;;;;762306;180;914039;-77
2023/05/04 11:35:00;;;;;;;11.93;7.27;;;;;;;;;;756004;181;1327361;-76
2023/05/04 11:37:27;;;;;;;8.70;5.43;;;;;;;;;;763408;183;731930;-76
2023/05/04 11:39:52;;;;;;;10.20;6.73;;;;;;;;;;767828;180;815626;-77
2023/05/04 11:42:17;;;;;;;13.93;7.53;;;;;;;;;;757790;181;918995;-77
2023/05/04 11:44:44;;;;;;;8.27;6.28;;;;;;;;;;764970;180;918537;-77
2023/05/04 11:47:09;;;;;;;7.80;6.50;;;;;;;;;;759611;181;918623;-76
2023/05/04 11:49:35;;;;;;;7.30;6.20;;;;;;;;;;763831;183;824606;-77
2023/05/04 11:52:05;;;;;;;13.50;8.53;;;;;;;;;;760823;183;919285;-78
2023/05/04 11:54:30;;;;;;;6.07;4.30;;;;;;;;;;762363;181;911082;-75
2023/05/04 11:56:57;;;;;;;11.73;7.43;;;;;;;;;;764357;181;919233;-77
2023/05/04 11:59:22;;;;;;;7.50;4.87;;;;;;;;;;758021;183;913988;-76
2023/05/04 12:01:48;;;;;;;11.20;7.77;;;;;;;;;;764774;181;816330;-77
2023/05/04 12:04:13;;;;;;;8.10;5.50;;;;;;;;;;764884;183;919733;-77
2023/05/04 12:06:39;;;;;;;10.93;5.60;;;;;;;;;;757842;181;915793;-77
2023/05/04 12:09:05;;;;;;;10.80;6.27;;;;;;;;;;763865;181;921347;-77
2023/05/04 12:11:31;;;;;;;12.73;6.30;;;;;;;;;;766538;180;911093;-77
2023/05/04 12:14:02;;;;;;;9.10;5.80;;;;;;;;;;763564;180;903567;-78
2023/05/04 12:16:28;;;;;;;8.57;5.70;;;;;;;;;;766895;180;918980;-76
2023/05/04 12:19:03;;;;;;;7.00;4.50;;;;;;;;;;753985;183;910960;-77
2023/05/04 12:21:29;;;;;;;7.07;4.83;;;;;;;;;;761723;183;919260;-77
2023/05/04 12:23:56;;;;;;;5.70;3.83;;;;;;;;;;758808;181;953922;-77
2023/05/04 12:26:21;;;;;;;6.13;4.47;;;;;;;;;;762763;180;919617;-76
2023/05/04 12:28:47;;;;;;;7.90;4.40;;;;;;;;;;767834;183;814233;-77
2023/05/04 12:31:12;;;;;;;6.57;4.17;;;;;;;;;;758029;183;1019205;-76
2023/05/04 12:33:38;;;;;;;12.63;4.80;;;;;;;;;;753833;183;920405;-76
2023/05/04 12:36:04;;;;;;;8.30;5.53;;;;;;;;;;771482;180;816331;-76
2023/05/04 12:38:30;;;;;;;8.97;5.47;;;;;;;;;;773552;181;815620;-76
2023/05/04 12:40:59;;;;;;;10.10;5.50;;;;;;;;;;757341;181;996988;-74
2023/05/04 12:43:23;;;;;;;8.17;6.80;;;;;;;;;;770717;183;1030703;-75
2023/05/04 12:45:49;;;;;;;15.90;7.03;;;;;;;;;;762722;181;919414;-76
2023/05/04 12:48:14;;;;;;;9.35;4.65;;;;;;;;;;751593;183;918976;-77
2023/05/04 12:50:40;;;;;;;13.13;5.60;;;;;;;;;;761727;183;918202;-74
2023/05/04 12:53:06;;;;;;;7.47;4.10;;;;;;;;;;760481;183;931882;-76
2023/05/04 12:55:32;;;;;;;10.20;5.60;;;;;;;;;;756961;181;917252;-75
2023/05/04 12:57:58;;;;;;;7.40;5.30;;;;;;;;;;756331;181;919787;-75
2023/05/04 13:00:24;;;;;;;9.40;6.83;;;;;;;;;;766888;181;918091;-75
2023/05/04 13:02:49;;;;;;;8.27;5.10;;;;;;;;;;750869;184;882482;-75
2023/05/04 13:05:17;;;;;;;7.20;5.50;;;;;;;;;;763188;181;907754;-76
2023/05/04 13:07:41;;;;;;;7.97;6.10;;;;;;;;;;762566;184;915384;-76
2023/05/04 13:10:07;;;;;;;10.47;5.33;;;;;;;;;;763220;181;850052;-75
2023/05/04 13:12:33;;;;;;;9.77;6.87;;;;;;;;;;764993;181;922863;-76
2023/05/04 13:14:59;;;;;;;18.50;9.13;;;;;;;;;;764515;181;1005658;-76
2023/05/04 13:17:25;;;;;;;10.57;6.37;;;;;;;;;;761019;181;915104;-76
2023/05/04 13:19:51;;;;;;;7.30;5.07;;;;;;;;;;759752;181;917569;-74
2023/05/04 13:22:17;;;;;;;7.17;5.60;;;;;;;;;;755967;180;917367;-74
2023/05/04 13:24:42;;;;;;;9.47;6.03;;;;;;;;;;765535;180;916565;-75
2023/05/04 13:27:08;;;;;;;8.97;5.67;;;;;;;;;;762399;180;827168;-76
2023/05/04 13:29:34;;;;;;;30.25;6.87;;;;;;;;;;767606;180;885625;-74
2023/05/04 13:32:00;;;;;;;8.30;6.00;;;;;;;;;;764789;184;900677;-74
2023/05/04 13:34:26;;;;;;;7.60;4.80;;;;;;;;;;743494;187;813521;-76
2023/05/04 13:36:52;;;;;;;9.20;5.27;;;;;;;;;;762051;182;918268;-75
2023/05/04 13:39:18;;;;;;;6.70;4.50;;;;;;;;;;761721;183;920062;-77
2023/05/04 13:41:43;;;;;;;7.87;5.50;;;;;;;;;;757551;181;920332;-76
2023/05/04 13:44:10;;;;;;;10.43;6.13;;;;;;;;;;763281;181;922254;-76
2023/05/04 13:46:35;;;;;;;6.80;4.13;;;;;;;;;;758488;180;908203;-76
2023/05/04 13:49:01;;;;;;;9.87;5.27;;;;;;;;;;763490;183;818598;-77
2023/05/04 13:51:27;;;;;;;7.37;5.60;;;;;;;;;;761012;180;1045865;-75
2023/05/04 13:53:53;;;;;;;8.30;6.80;;;;;;;;;;762639;181;1246787;-76
2023/05/04 13:56:19;;;;;;;9.90;5.07;;;;;;;;;;762207;181;931295;-77
2023/05/04 13:58:44;;;;;;;7.63;4.80;;;;;;;;;;754603;180;916068;-77
2023/05/04 14:01:10;;;;;;;7.20;4.70;;;;;;;;;;755859;180;918483;-76
2023/05/04 14:03:36;;;;;;;5.90;4.40;;;;;;;;;;739137;189;919401;-78
2023/05/04 14:06:02;;;;;;;4.47;3.33;;;;;;;;;;745082;185;1018992;-78
2023/05/04 14:08:28;;;;;;;8.70;6.07;;;;;;;;;;761706;181;919756;-77